Time;durP1;ratioP1;P1;durP2;ratioP2;P2;SDS_P1;SDS_P2;PMS_P1;PMS_P2;Temp;Humidity;BMP_temperature;BMP_pressure;BME280_temperature;BME280_humidity;BME280_pressure;Samples;Min_cycle;Max_cycle;Signal;HPM_P1;HPM_P2
2022/05/27 00:00:54;;;;;;;5.15;1.80;;;16.80;73.70;;;;;;5088919;28;20574;-68
2022/05/27 00:03:20;;;;;;;6.18;2.10;;;16.70;73.80;;;;;;5082972;28;20032;-67
2022/05/27 00:05:50;;;;;;;5.50;2.47;;;16.80;73.80;;;;;;5086569;28;20071;-68
2022/05/27 00:08:15;;;;;;;5.97;2.40;;;16.80;74.10;;;;;;5082584;28;20032;-67
2022/05/27 00:10:41;;;;;;;7.10;2.50;;;16.70;74.30;;;;;;5086208;28;20024;-67
2022/05/27 00:13:07;;;;;;;5.15;2.33;;;16.70;74.50;;;;;;5086204;28;20036;-67
2022/05/27 00:15:33;;;;;;;5.20;2.25;;;16.70;75.10;;;;;;5090534;28;20019;-68
2022/05/27 00:17:58;;;;;;;4.38;2.50;;;16.60;75.20;;;;;;5099825;28;20024;-67
2022/05/27 00:20:24;;;;;;;4.60;2.35;;;16.60;75.30;;;;;;5096626;28;20073;-67
2022/05/27 00:22:49;;;;;;;6.43;2.40;;;16.60;75.50;;;;;;5093658;28;20425;-67
2022/05/27 00:25:15;;;;;;;6.32;2.60;;;16.60;75.80;;;;;;5087651;28;20034;-69
2022/05/27 00:27:40;;;;;;;6.43;3.20;;;16.60;76.20;;;;;;5089561;28;20095;-69
2022/05/27 00:30:08;;;;;;;5.80;2.40;;;16.50;76.50;;;;;;5081321;28;20024;-68
2022/05/27 00:32:35;;;;;;;5.28;2.60;;;16.60;76.70;;;;;;5063651;28;20017;-68
2022/05/27 00:35:01;;;;;;;4.50;2.38;;;16.50;77.00;;;;;;5085437;28;20066;-69
2022/05/27 00:37:26;;;;;;;4.95;2.10;;;16.50;77.20;;;;;;5086947;28;20036;-69
2022/05/27 00:39:52;;;;;;;5.53;2.35;;;16.50;77.30;;;;;;5087460;28;20055;-69
2022/05/27 00:42:18;;;;;;;8.55;2.85;;;16.40;77.40;;;;;;5086671;28;20034;-69
2022/05/27 00:44:43;;;;;;;5.25;2.35;;;16.40;77.80;;;;;;5067551;28;20485;-68
2022/05/27 00:47:12;;;;;;;5.25;2.40;;;16.40;77.70;;;;;;5090475;28;20545;-68
2022/05/27 00:49:53;;;;;;;5.15;2.50;;;16.40;77.80;;;;;;5087577;28;20545;-67
2022/05/27 00:52:21;;;;;;;3.45;1.90;;;16.30;78.20;;;;;;5067540;28;20020;-68
2022/05/27 00:54:47;;;;;;;4.18;2.20;;;16.30;78.30;;;;;;5084270;28;20032;-66
2022/05/27 00:57:17;;;;;;;4.47;1.80;;;16.20;78.80;;;;;;5090838;28;20023;-68
2022/05/27 01:00:06;;;;;;;2.70;1.60;;;16.20;78.90;;;;;;5083202;28;20479;-67
2022/05/27 01:02:34;;;;;;;3.45;1.70;;;16.20;79.00;;;;;;5085965;28;20505;-67
2022/05/27 01:05:01;;;;;;;1.88;1.48;;;16.10;79.10;;;;;;5086305;28;20054;-66
2022/05/27 01:07:26;;;;;;;2.70;1.40;;;16.10;79.10;;;;;;5077250;28;20058;-66
2022/05/27 01:09:53;;;;;;;2.85;1.60;;;16.10;79.20;;;;;;5089304;28;20494;-66
2022/05/27 01:12:28;;;;;;;3.53;1.60;;;16.10;79.20;;;;;;5077561;28;20028;-66
2022/05/27 01:15:28;;;;;;;3.38;1.52;;;16.10;79.90;;;;;;5081180;28;20031;-67
2022/05/27 01:17:59;;;;;;;4.07;1.60;;;16.00;79.30;;;;;;5088542;28;20027;-66
2022/05/27 01:20:30;;;;;;;2.63;1.40;;;16.00;79.50;;;;;;5088066;28;20055;-67
2022/05/27 01:23:19;;;;;;;1.65;1.23;;;16.00;79.50;;;;;;5088655;28;20016;-67
2022/05/27 01:26:12;;;;;;;3.50;1.50;;;16.00;79.50;;;;;;5082196;28;20402;-67
2022/05/27 01:28:50;;;;;;;2.35;1.50;;;15.90;79.60;;;;;;5082855;28;20112;-67
2022/05/27 01:31:31;;;;;;;3.25;1.75;;;15.90;79.80;;;;;;5084273;28;20511;-66
2022/05/27 01:34:33;;;;;;;2.85;1.67;;;15.80;80.00;;;;;;5088653;28;20039;-68
2022/05/27 01:37:15;;;;;;;3.30;1.45;;;15.80;80.20;;;;;;5082694;28;20086;-67
2022/05/27 01:40:07;;;;;;;2.95;1.60;;;15.70;80.20;;;;;;5086315;28;20020;-67
2022/05/27 01:42:43;;;;;;;3.38;1.50;;;15.60;80.50;;;;;;5087557;28;20027;-66
2022/05/27 01:45:11;;;;;;;2.47;1.40;;;15.60;80.40;;;;;;5083711;28;20127;-65
2022/05/27 01:47:52;;;;;;;3.08;1.50;;;15.60;80.40;;;;;;5090951;28;20039;-66
2022/05/27 01:50:28;;;;;;;4.10;1.60;;;15.60;80.50;;;;;;5068844;28;20451;-65
2022/05/27 01:53:09;;;;;;;4.22;1.38;;;15.60;80.50;;;;;;5099466;28;20051;-66
2022/05/27 01:55:40;;;;;;;3.30;1.38;;;15.70;80.40;;;;;;5087008;28;20028;-66
2022/05/27 01:58:13;;;;;;;3.03;1.40;;;15.70;80.20;;;;;;5090305;28;20012;-66
2022/05/27 02:00:42;;;;;;;2.58;1.52;;;15.70;80.20;;;;;;5088607;28;20024;-66
2022/05/27 02:03:13;;;;;;;2.97;1.70;;;15.60;80.30;;;;;;5089317;28;20432;-66
2022/05/27 02:05:45;;;;;;;3.83;1.67;;;15.60;80.30;;;;;;5083659;28;20048;-67
2022/05/27 02:08:23;;;;;;;3.28;1.60;;;15.70;80.20;;;;;;5086480;28;20026;-67
2022/05/27 02:11:23;;;;;;;3.05;1.25;;;15.70;80.10;;;;;;5086770;28;20081;-67
2022/05/27 02:13:59;;;;;;;3.95;1.40;;;15.70;79.90;;;;;;5086242;28;20028;-68
2022/05/27 02:16:35;;;;;;;4.05;1.42;;;15.70;80.10;;;;;;5089649;28;20039;-67
2022/05/27 02:19:07;;;;;;;2.70;1.83;;;15.70;80.00;;;;;;5079313;28;20076;-67
2022/05/27 02:21:42;;;;;;;3.92;1.73;;;15.70;80.10;;;;;;5089881;28;20107;-68
2022/05/27 02:24:20;;;;;;;3.60;1.60;;;15.70;80.00;;;;;;5084409;28;20482;-67
2022/05/27 02:26:51;;;;;;;2.90;1.88;;;15.70;80.00;;;;;;5085931;28;20390;-66
2022/05/27 02:29:21;;;;;;;3.65;1.70;;;15.70;79.90;;;;;;5077155;28;20028;-66
2022/05/27 02:31:52;;;;;;;2.13;1.50;;;15.70;79.80;;;;;;5083420;28;20020;-67
2022/05/27 02:37:18;;;;;;;3.38;1.42;;;15.70;79.70;;;;;;5081227;28;20031;-66
2022/05/27 02:39:44;;;;;;;4.28;1.33;;;15.70;79.70;;;;;;5086371;28;20725;-66
2022/05/27 02:42:19;;;;;;;3.53;1.70;;;15.70;79.60;;;;;;5087641;28;20126;-66
2022/05/27 02:44:54;;;;;;;3.38;1.52;;;15.60;79.60;;;;;;5085380;28;20020;-66
2022/05/27 02:47:48;;;;;;;3.95;1.80;;;15.60;79.70;;;;;;5086882;28;20035;-67
2022/05/27 02:50:33;;;;;;;3.45;1.65;;;15.60;79.80;;;;;;5072460;28;20109;-67
2022/05/27 02:53:39;;;;;;;3.28;1.63;;;15.50;79.80;;;;;;5089675;28;20020;-67
2022/05/27 02:56:24;;;;;;;4.72;1.90;;;15.50;80.00;;;;;;5091131;28;20039;-66
2022/05/27 02:58:49;;;;;;;4.68;2.08;;;15.40;79.90;;;;;;5088813;28;20023;-67
2022/05/27 03:01:16;;;;;;;3.20;1.48;;;15.40;79.90;;;;;;5080039;28;20020;-68
2022/05/27 03:03:42;;;;;;;4.60;1.70;;;15.40;79.90;;;;;;5084138;28;20016;-67
2022/05/27 03:06:27;;;;;;;3.47;1.65;;;15.40;79.90;;;;;;5085095;28;20073;-68
2022/05/27 03:09:23;;;;;;;4.90;1.80;;;15.40;79.90;;;;;;5089738;28;20031;-68
2022/05/27 03:11:50;;;;;;;3.15;1.75;;;15.30;79.80;;;;;;5083982;28;20025;-68
2022/05/27 03:14:37;;;;;;;3.25;1.60;;;15.30;79.90;;;;;;5082816;28;20025;-68
2022/05/27 03:17:23;;;;;;;4.07;1.83;;;15.30;79.90;;;;;;5081502;28;20450;-68
2022/05/27 03:20:10;;;;;;;4.10;1.90;;;15.30;80.00;;;;;;5087087;28;20035;-67
2022/05/27 03:23:00;;;;;;;5.50;2.08;;;15.30;80.10;;;;;;5090471;28;20459;-67
2022/05/27 03:25:47;;;;;;;4.00;1.70;;;15.30;80.10;;;;;;5081797;28;20030;-67
2022/05/27 03:28:35;;;;;;;3.22;1.60;;;15.30;80.10;;;;;;5079939;28;20105;-67
2022/05/27 03:31:10;;;;;;;4.47;2.00;;;15.20;80.00;;;;;;5077086;28;20042;-65
2022/05/27 03:34:05;;;;;;;2.53;1.67;;;15.20;80.10;;;;;;5085450;28;20515;-67
2022/05/27 03:36:42;;;;;;;3.75;1.90;;;15.20;80.20;;;;;;5081924;28;20086;-67
2022/05/27 03:39:34;;;;;;;3.80;1.95;;;15.10;80.30;;;;;;5097675;28;20027;-67
2022/05/27 03:42:03;;;;;;;2.80;1.38;;;15.10;80.20;;;;;;5097371;28;20026;-67
2022/05/27 03:44:29;;;;;;;4.15;1.80;;;15.10;80.00;;;;;;5088022;28;20021;-67
2022/05/27 03:46:56;;;;;;;3.63;1.83;;;15.20;80.10;;;;;;5083875;28;20466;-67
2022/05/27 03:49:22;;;;;;;5.85;1.95;;;15.10;80.20;;;;;;5086573;28;20060;-68
2022/05/27 03:52:06;;;;;;;3.00;1.88;;;15.20;80.20;;;;;;5084741;28;20131;-69
2022/05/27 03:54:32;;;;;;;4.68;2.17;;;15.10;80.30;;;;;;5081115;28;20486;-68
2022/05/27 03:56:59;;;;;;;3.80;1.70;;;15.10;80.40;;;;;;5084278;28;20051;-68
2022/05/27 03:59:25;;;;;;;3.45;1.73;;;15.10;80.40;;;;;;5090896;28;20028;-67
2022/05/27 04:01:53;;;;;;;3.90;1.90;;;15.10;80.30;;;;;;5082203;28;20390;-67
2022/05/27 04:04:22;;;;;;;3.63;1.73;;;15.10;80.30;;;;;;5087904;28;20058;-67
2022/05/27 04:06:48;;;;;;;3.13;1.90;;;15.00;80.20;;;;;;5085166;28;20031;-67
2022/05/27 04:09:15;;;;;;;4.90;1.70;;;15.00;80.30;;;;;;5074787;28;20019;-67
2022/05/27 04:11:41;;;;;;;4.95;2.00;;;15.00;80.20;;;;;;5085837;28;20376;-68
2022/05/27 04:14:07;;;;;;;2.47;1.65;;;15.10;80.20;;;;;;5089782;28;20122;-67
2022/05/27 04:16:33;;;;;;;3.22;1.98;;;15.10;80.00;;;;;;5088806;28;20028;-67
2022/05/27 04:18:58;;;;;;;6.25;2.20;;;15.10;80.00;;;;;;5089066;28;20032;-67
2022/05/27 04:21:24;;;;;;;4.88;1.92;;;15.10;79.90;;;;;;5089616;28;20040;-67
2022/05/27 04:23:50;;;;;;;3.45;1.80;;;15.10;79.90;;;;;;5090943;28;20028;-67
2022/05/27 04:26:16;;;;;;;4.30;1.80;;;15.10;79.80;;;;;;5083858;28;20600;-67
2022/05/27 04:28:42;;;;;;;6.45;1.80;;;15.10;79.70;;;;;;5091405;28;20110;-68
2022/05/27 04:31:07;;;;;;;4.15;1.60;;;15.10;79.80;;;;;;5089369;28;20042;-68
2022/05/27 04:33:33;;;;;;;3.28;1.80;;;15.20;79.70;;;;;;5092041;28;20024;-68
2022/05/27 04:36:00;;;;;;;3.33;1.92;;;15.20;79.50;;;;;;5087156;28;20043;-67
2022/05/27 04:38:25;;;;;;;3.33;1.70;;;15.30;79.50;;;;;;5092010;28;20035;-67
2022/05/27 04:40:51;;;;;;;4.35;1.90;;;15.30;79.30;;;;;;5095639;28;20027;-67
2022/05/27 04:43:17;;;;;;;5.45;1.90;;;15.30;79.30;;;;;;5092052;28;20032;-68
2022/05/27 04:45:43;;;;;;;3.83;1.45;;;15.40;79.20;;;;;;5074518;28;20036;-69
2022/05/27 04:48:09;;;;;;;4.50;1.90;;;15.40;79.00;;;;;;5084569;28;20028;-68
2022/05/27 04:50:35;;;;;;;4.10;2.00;;;15.40;79.00;;;;;;5090269;28;20027;-68
2022/05/27 04:53:00;;;;;;;3.50;1.48;;;15.40;78.90;;;;;;5082792;28;20402;-68
2022/05/27 04:55:26;;;;;;;4.97;2.00;;;15.50;78.80;;;;;;5092094;28;20028;-68
2022/05/27 04:57:54;;;;;;;3.92;1.60;;;15.60;78.80;;;;;;5082981;28;20042;-68
2022/05/27 05:00:28;;;;;;;5.30;1.70;;;16.10;78.20;;;;;;5086106;28;20059;-68
2022/05/27 05:02:54;;;;;;;4.45;1.83;;;16.90;76.40;;;;;;5089882;28;20024;-68
2022/05/27 05:05:22;;;;;;;4.15;1.75;;;17.40;74.40;;;;;;5081300;28;20027;-68
2022/05/27 05:07:59;;;;;;;3.78;1.42;;;18.00;72.70;;;;;;5087603;28;20103;-68
2022/05/27 05:10:25;;;;;;;4.85;1.90;;;18.60;71.00;;;;;;5086828;28;20057;-69
2022/05/27 05:12:51;;;;;;;6.57;1.90;;;18.90;69.40;;;;;;5080719;28;20371;-68
2022/05/27 05:15:19;;;;;;;5.32;1.80;;;19.30;68.40;;;;;;5086465;28;20023;-68
2022/05/27 05:17:46;;;;;;;6.97;1.88;;;19.60;67.30;;;;;;5090456;28;20097;-68
2022/05/27 05:20:14;;;;;;;7.07;2.05;;;19.90;66.40;;;;;;5087341;28;20065;-68
2022/05/27 05:22:40;;;;;;;4.18;1.92;;;20.10;65.60;;;;;;5081081;28;20114;-68
2022/05/27 05:25:06;;;;;;;6.57;1.90;;;20.30;64.50;;;;;;5089662;28;20553;-68
2022/05/27 05:27:34;;;;;;;5.15;1.90;;;20.40;64.20;;;;;;5068790;28;20788;-67
2022/05/27 05:30:00;;;;;;;4.93;1.85;;;20.40;64.10;;;;;;5089697;28;20077;-68
2022/05/27 05:32:26;;;;;;;5.45;2.08;;;20.50;64.10;;;;;;5087716;28;20028;-68
2022/05/27 05:34:58;;;;;;;6.25;2.00;;;20.80;63.60;;;;;;5088316;28;20414;-68
2022/05/27 05:37:24;;;;;;;4.85;1.48;;;20.80;63.40;;;;;;5090312;28;20398;-68
2022/05/27 05:39:50;;;;;;;3.08;1.38;;;21.00;63.10;;;;;;5089215;28;20501;-67
2022/05/27 05:42:15;;;;;;;2.85;1.50;;;21.10;63.00;;;;;;5086102;28;20082;-66
2022/05/27 05:44:41;;;;;;;4.85;1.70;;;21.20;62.90;;;;;;5088329;28;20070;-67
2022/05/27 05:47:06;;;;;;;7.88;2.17;;;21.10;62.50;;;;;;5100544;28;20020;-66
2022/05/27 05:49:32;;;;;;;6.03;2.20;;;20.90;63.10;;;;;;5082872;28;20486;-65
2022/05/27 05:51:59;;;;;;;6.32;2.17;;;20.90;63.40;;;;;;5102910;28;20125;-67
2022/05/27 05:54:27;;;;;;;6.00;2.17;;;20.60;64.00;;;;;;5093706;28;20142;-67
2022/05/27 05:56:53;;;;;;;6.50;2.08;;;20.40;64.50;;;;;;5091011;28;20034;-67
2022/05/27 05:59:19;;;;;;;6.15;2.15;;;20.50;64.70;;;;;;5098912;28;20408;-67
2022/05/27 06:01:45;;;;;;;3.83;1.90;;;20.80;64.40;;;;;;5090430;28;20020;-68
2022/05/27 06:04:11;;;;;;;3.75;1.90;;;21.10;63.80;;;;;;5091350;28;20764;-68
2022/05/27 06:06:37;;;;;;;4.72;1.88;;;20.70;64.10;;;;;;5087770;28;20035;-67
2022/05/27 06:09:05;;;;;;;5.60;2.20;;;20.70;64.40;;;;;;5093951;28;20118;-67
2022/05/27 06:11:30;;;;;;;4.88;1.83;;;20.40;64.90;;;;;;5103854;28;20035;-68
2022/05/27 06:13:56;;;;;;;4.20;1.80;;;20.00;65.20;;;;;;5083359;28;20356;-67
2022/05/27 06:16:21;;;;;;;7.20;2.42;;;19.80;66.00;;;;;;5086383;28;20047;-67
2022/05/27 06:18:48;;;;;;;5.30;1.85;;;19.80;66.40;;;;;;5059319;28;20040;-67
2022/05/27 06:21:13;;;;;;;4.28;1.98;;;19.50;66.70;;;;;;5092617;28;20027;-67
2022/05/27 06:23:39;;;;;;;3.70;1.90;;;19.40;67.10;;;;;;5093511;28;20050;-67
2022/05/27 06:26:09;;;;;;;5.63;1.90;;;19.30;67.40;;;;;;5087138;28;20421;-67
2022/05/27 06:36:53;;;;;;;5.03;1.98;;;18.50;68.70;;;;;;5096231;28;20085;-68
2022/05/27 06:39:20;;;;;;;6.65;2.15;;;18.70;68.30;;;;;;5072497;28;20017;-68
2022/05/27 06:41:45;;;;;;;5.85;1.88;;;18.50;68.20;;;;;;5089098;28;20493;-68
2022/05/27 06:44:11;;;;;;;4.60;1.90;;;18.40;68.10;;;;;;5084456;28;20032;-68
2022/05/27 06:46:37;;;;;;;3.78;1.70;;;18.20;68.10;;;;;;5077398;28;20446;-68
2022/05/27 06:49:05;;;;;;;5.68;1.80;;;18.10;68.30;;;;;;5059592;28;20103;-68
2022/05/27 06:51:31;;;;;;;6.47;1.80;;;18.10;68.10;;;;;;5078679;28;20032;-67
2022/05/27 06:53:57;;;;;;;5.07;1.60;;;18.20;67.90;;;;;;5086027;28;20445;-67
2022/05/27 06:56:22;;;;;;;4.55;1.73;;;18.20;67.50;;;;;;5085653;28;20055;-66
2022/05/27 06:58:48;;;;;;;5.28;1.55;;;18.20;66.00;;;;;;5091218;28;20099;-66
2022/05/27 07:01:14;;;;;;;7.45;2.00;;;18.00;64.90;;;;;;5073531;28;20107;-66
2022/05/27 07:03:40;;;;;;;4.72;1.60;;;17.80;64.10;;;;;;5089607;28;20403;-67
2022/05/27 07:06:07;;;;;;;6.10;1.90;;;17.70;64.00;;;;;;5096729;28;20043;-66
2022/05/27 07:08:32;;;;;;;7.68;3.95;;;17.50;63.80;;;;;;5092076;28;20032;-67
2022/05/27 07:10:58;;;;;;;7.10;2.75;;;17.50;64.00;;;;;;5081360;28;20028;-67
2022/05/27 07:13:24;;;;;;;6.50;1.90;;;17.60;63.50;;;;;;5079667;28;20031;-67
2022/05/27 07:15:49;;;;;;;4.85;1.75;;;17.60;63.40;;;;;;5093831;28;20032;-67
2022/05/27 07:18:15;;;;;;;5.10;1.85;;;17.80;63.20;;;;;;5069126;28;20020;-67
2022/05/27 07:20:41;;;;;;;4.07;1.60;;;18.00;62.80;;;;;;5092387;28;20030;-68
2022/05/27 07:23:08;;;;;;;5.55;1.70;;;18.20;62.70;;;;;;5081366;28;20626;-68
2022/05/27 07:25:35;;;;;;;5.38;1.60;;;18.30;62.30;;;;;;5081085;28;20100;-68
2022/05/27 07:28:11;;;;;;;5.93;1.70;;;18.40;62.30;;;;;;5079820;28;20057;-68
2022/05/27 07:30:37;;;;;;;6.38;1.85;;;18.60;62.40;;;;;;5084424;28;20044;-68
2022/05/27 07:33:03;;;;;;;6.95;1.77;;;18.70;61.80;;;;;;5084210;28;20038;-68
2022/05/27 07:35:29;;;;;;;4.60;1.67;;;18.80;61.40;;;;;;5086525;28;20040;-66
2022/05/27 07:37:55;;;;;;;6.43;1.85;;;19.00;60.50;;;;;;5081996;28;20028;-67
2022/05/27 07:40:21;;;;;;;6.55;1.75;;;19.00;59.20;;;;;;5086223;28;20111;-66
2022/05/27 07:42:48;;;;;;;8.65;2.20;;;18.90;57.90;;;;;;5088543;28;20039;-67
2022/05/27 07:45:15;;;;;;;4.03;1.90;;;19.00;56.80;;;;;;5089840;28;20020;-66
2022/05/27 07:47:41;;;;;;;5.05;1.65;;;19.00;56.00;;;;;;5084825;28;20032;-67
2022/05/27 07:50:09;;;;;;;4.20;1.65;;;18.90;55.80;;;;;;5084243;28;20443;-67
2022/05/27 07:52:36;;;;;;;6.18;1.85;;;18.80;56.20;;;;;;5087398;28;20048;-67
2022/05/27 07:55:04;;;;;;;6.05;2.28;;;18.90;55.60;;;;;;5051044;28;20024;-67
2022/05/27 07:57:29;;;;;;;6.68;1.80;;;18.90;55.70;;;;;;5086229;28;20035;-67
2022/05/27 07:59:55;;;;;;;8.00;2.00;;;19.10;55.50;;;;;;5087437;28;20394;-67
2022/05/27 08:02:22;;;;;;;5.20;1.50;;;19.20;54.40;;;;;;5086317;28;20460;-67
2022/05/27 08:04:48;;;;;;;6.25;1.90;;;19.20;54.20;;;;;;5087045;28;20058;-67
2022/05/27 08:07:13;;;;;;;6.45;2.17;;;19.20;53.70;;;;;;5090729;28;20114;-67
2022/05/27 08:09:39;;;;;;;5.13;1.88;;;19.10;53.40;;;;;;5087134;28;20103;-66
2022/05/27 08:12:06;;;;;;;5.20;1.90;;;19.10;53.40;;;;;;5087145;28;20111;-66
2022/05/27 08:14:32;;;;;;;4.97;1.55;;;19.00;53.20;;;;;;5065771;28;20024;-67
2022/05/27 08:16:58;;;;;;;6.40;2.05;;;19.10;53.30;;;;;;5078285;28;20028;-67
2022/05/27 08:19:24;;;;;;;5.05;1.60;;;19.00;52.80;;;;;;5087695;28;20055;-66
2022/05/27 08:21:49;;;;;;;5.18;1.83;;;19.10;52.50;;;;;;5087737;28;20109;-67
2022/05/27 08:24:16;;;;;;;5.18;1.63;;;19.00;52.00;;;;;;5086821;28;20027;-67
2022/05/27 08:26:42;;;;;;;5.85;1.80;;;19.00;52.20;;;;;;5087346;28;20029;-67
2022/05/27 08:29:08;;;;;;;3.92;1.60;;;19.20;52.10;;;;;;5084195;28;20054;-67
2022/05/27 08:31:34;;;;;;;6.85;1.98;;;19.30;52.20;;;;;;5084041;28;20049;-67
2022/05/27 08:39:28;;;;;;;6.13;1.70;;;19.30;51.90;;;;;;5081149;28;20036;-67
2022/05/27 08:42:24;;;;;;;8.40;2.00;;;19.20;52.00;;;;;;5087632;28;20016;-67
2022/05/27 08:45:09;;;;;;;6.85;2.03;;;19.00;52.00;;;;;;5090137;28;20020;-67
2022/05/27 08:47:48;;;;;;;4.13;1.90;;;18.80;52.50;;;;;;5087129;28;20032;-66
2022/05/27 08:50:48;;;;;;;5.85;2.00;;;18.80;52.80;;;;;;5082933;28;20027;-67
2022/05/27 08:53:48;;;;;;;7.30;1.90;;;18.90;52.70;;;;;;5094870;28;20494;-67
2022/05/27 08:59:31;;;;;;;4.88;2.20;;;19.10;50.80;;;;;;5082711;28;20417;-66
2022/05/27 09:02:03;;;;;;;8.45;2.33;;;19.10;50.30;;;;;;5086839;28;20027;-67
2022/05/27 09:04:43;;;;;;;5.50;1.98;;;19.10;50.00;;;;;;5067709;28;20035;-66
2022/05/27 09:07:34;;;;;;;7.03;1.92;;;19.00;50.30;;;;;;5091116;28;20063;-66
2022/05/27 09:10:02;;;;;;;4.07;1.70;;;19.00;50.90;;;;;;5086316;28;20032;-66
2022/05/27 09:12:46;;;;;;;4.50;1.83;;;19.00;51.30;;;;;;5081580;28;20048;-67
2022/05/27 09:15:51;;;;;;;5.28;1.90;;;19.20;50.90;;;;;;5088729;28;20031;-66
2022/05/27 09:18:27;;;;;;;6.72;2.22;;;19.20;49.60;;;;;;5082854;28;20028;-66
2022/05/27 09:21:02;;;;;;;4.78;1.88;;;19.20;49.20;;;;;;5082668;28;20639;-67
2022/05/27 09:24:00;;;;;;;5.32;1.90;;;19.10;48.70;;;;;;5087537;28;20024;-67
2022/05/27 09:27:07;;;;;;;3.92;1.77;;;19.10;49.20;;;;;;5085610;28;20020;-67
2022/05/27 09:29:48;;;;;;;7.63;2.38;;;19.10;48.70;;;;;;5095379;28;20031;-67
2022/05/27 09:32:32;;;;;;;5.45;1.80;;;19.10;48.10;;;;;;5082227;28;20024;-67
2022/05/27 09:35:04;;;;;;;5.78;2.20;;;19.30;48.70;;;;;;5078148;28;20075;-67
2022/05/27 09:37:37;;;;;;;6.00;1.92;;;19.40;48.30;;;;;;5092561;28;20172;-67
2022/05/27 09:40:14;;;;;;;5.88;1.95;;;19.50;48.30;;;;;;5079645;28;20613;-67
2022/05/27 09:42:56;;;;;;;4.38;1.63;;;19.50;47.10;;;;;;5068480;28;20140;-66
2022/05/27 09:45:22;;;;;;;5.88;1.92;;;19.70;46.90;;;;;;5084945;28;20248;-66
2022/05/27 09:47:48;;;;;;;5.28;1.85;;;19.80;46.40;;;;;;5095054;28;20526;-67
2022/05/27 09:50:26;;;;;;;6.07;1.80;;;19.60;46.00;;;;;;5093551;28;20045;-67
2022/05/27 09:52:57;;;;;;;7.45;1.70;;;19.60;45.90;;;;;;5087396;28;20028;-67
2022/05/27 09:55:31;;;;;;;7.13;1.95;;;19.60;45.90;;;;;;5083814;28;20510;-68
2022/05/27 09:58:05;;;;;;;6.97;2.10;;;19.80;45.80;;;;;;5086249;28;20036;-65
2022/05/27 10:00:36;;;;;;;7.63;2.78;;;19.70;45.00;;;;;;5086379;28;20024;-66
2022/05/27 10:03:27;;;;;;;4.90;1.90;;;19.80;45.50;;;;;;5091105;28;20482;-66
2022/05/27 10:06:16;;;;;;;7.35;2.10;;;19.80;45.30;;;;;;5093951;28;20035;-66
2022/05/27 10:08:54;;;;;;;8.07;1.73;;;19.80;45.60;;;;;;5088427;28;20043;-66
2022/05/27 10:11:24;;;;;;;5.95;1.95;;;19.90;45.20;;;;;;5091872;28;20028;-67
2022/05/27 10:14:19;;;;;;;5.25;1.65;;;19.90;44.60;;;;;;5088847;28;20408;-66
2022/05/27 10:17:05;;;;;;;6.80;1.98;;;20.00;44.50;;;;;;5079509;28;20024;-67
2022/05/27 10:19:31;;;;;;;6.22;1.90;;;20.00;43.70;;;;;;5064057;28;20939;-67
2022/05/27 10:22:01;;;;;;;7.32;2.03;;;19.80;43.40;;;;;;5078084;28;20035;-67
2022/05/27 10:24:42;;;;;;;5.78;2.13;;;19.80;43.90;;;;;;5093261;28;20513;-67
2022/05/27 10:27:16;;;;;;;5.72;1.67;;;19.80;44.20;;;;;;5076635;28;20033;-68
2022/05/27 10:29:56;;;;;;;6.78;2.20;;;19.90;44.50;;;;;;5079973;28;20103;-67
2022/05/27 10:32:35;;;;;;;3.90;1.67;;;20.00;44.20;;;;;;5086344;28;20024;-68
2022/05/27 10:35:05;;;;;;;7.57;2.28;;;20.10;44.30;;;;;;5085994;28;20020;-68
2022/05/27 10:37:50;;;;;;;7.18;2.40;;;20.30;43.40;;;;;;5072502;28;20120;-68
2022/05/27 10:40:36;;;;;;;5.68;1.95;;;20.30;43.00;;;;;;5093771;28;20469;-68
2022/05/27 10:43:13;;;;;;;6.03;1.90;;;20.30;42.70;;;;;;5091771;28;20048;-68
2022/05/27 10:45:49;;;;;;;4.40;1.70;;;20.20;42.10;;;;;;5085248;28;20110;-68
2022/05/27 10:48:32;;;;;;;7.50;2.10;;;20.20;41.80;;;;;;5081182;28;20474;-67
2022/05/27 10:51:07;;;;;;;7.10;2.17;;;20.10;41.30;;;;;;5083618;28;20023;-68
2022/05/27 10:54:11;;;;;;;5.88;1.90;;;20.00;41.80;;;;;;5086753;28;20630;-67
2022/05/27 11:03:17;;;;;;;5.03;1.70;;;20.30;41.10;;;;;;5092011;28;20030;-68
2022/05/27 11:06:07;;;;;;;4.05;1.63;;;20.30;41.20;;;;;;5090545;28;20031;-68
2022/05/27 11:08:33;;;;;;;4.72;1.85;;;20.50;41.20;;;;;;5084735;28;20490;-68
2022/05/27 11:11:33;;;;;;;6.07;1.80;;;20.60;40.70;;;;;;5097675;28;20043;-68
2022/05/27 11:17:27;;;;;;;7.05;2.00;;;20.60;40.00;;;;;;5096682;28;20077;-68
2022/05/27 11:19:56;;;;;;;6.40;1.98;;;20.50;40.10;;;;;;5071391;28;20470;-68
2022/05/27 11:22:37;;;;;;;6.00;1.88;;;20.70;40.60;;;;;;5083167;28;20376;-68
2022/05/27 11:25:40;;;;;;;6.05;2.10;;;20.80;40.00;;;;;;5097085;28;20028;-68
2022/05/27 11:28:33;;;;;;;6.60;2.10;;;20.80;40.30;;;;;;5078774;28;20036;-66
2022/05/27 11:31:25;;;;;;;5.07;1.90;;;20.70;39.80;;;;;;5081928;28;20028;-66
2022/05/27 11:34:01;;;;;;;4.45;1.60;;;20.70;39.40;;;;;;5083266;28;20046;-67
2022/05/27 11:36:42;;;;;;;7.15;1.70;;;20.80;39.40;;;;;;5079572;28;20028;-66
2022/05/27 11:39:20;;;;;;;5.88;2.05;;;20.90;39.40;;;;;;5082600;28;20027;-67
2022/05/27 11:42:01;;;;;;;6.25;1.90;;;20.80;39.20;;;;;;5082770;28;20498;-67
2022/05/27 11:44:52;;;;;;;8.52;2.13;;;20.80;39.40;;;;;;5092766;28;20103;-67
2022/05/27 11:47:44;;;;;;;6.00;2.10;;;20.80;39.30;;;;;;5083963;28;20043;-67
2022/05/27 11:50:33;;;;;;;5.68;1.85;;;20.90;39.20;;;;;;5092724;28;20047;-67
2022/05/27 11:53:26;;;;;;;5.93;2.20;;;20.90;39.70;;;;;;5087186;28;20024;-67
2022/05/27 11:56:14;;;;;;;5.28;1.80;;;20.80;39.40;;;;;;5060563;28;20300;-67
2022/05/27 11:58:53;;;;;;;6.05;2.13;;;20.80;40.20;;;;;;5082989;28;20394;-68
2022/05/27 12:01:36;;;;;;;7.63;2.25;;;20.80;40.10;;;;;;5085692;28;20024;-68
2022/05/27 12:04:07;;;;;;;8.52;2.03;;;20.80;40.20;;;;;;5079402;28;20029;-67
2022/05/27 12:06:39;;;;;;;7.43;2.13;;;20.90;40.50;;;;;;5078782;28;20517;-67
2022/05/27 12:09:18;;;;;;;6.13;2.03;;;21.00;40.10;;;;;;5082019;28;20051;-68
2022/05/27 12:11:53;;;;;;;7.32;2.00;;;21.00;39.90;;;;;;5065081;28;20549;-68
2022/05/27 12:14:38;;;;;;;5.38;1.92;;;21.00;39.80;;;;;;5088533;28;20023;-68
2022/05/27 12:17:10;;;;;;;6.53;1.95;;;21.00;39.80;;;;;;5085489;28;20057;-68
2022/05/27 12:19:39;;;;;;;5.80;1.80;;;21.10;39.80;;;;;;5077197;28;20133;-68
2022/05/27 12:22:10;;;;;;;5.20;1.70;;;21.20;39.30;;;;;;5083870;28;20023;-68
2022/05/27 12:24:41;;;;;;;6.28;2.30;;;21.40;39.60;;;;;;5057975;28;20027;-68
2022/05/27 12:27:07;;;;;;;6.13;1.93;;;21.40;39.40;;;;;;5090747;28;20078;-67
2022/05/27 12:29:34;;;;;;;6.75;2.03;;;21.30;39.70;;;;;;5094300;28;20030;-67
2022/05/27 12:32:00;;;;;;;4.85;1.52;;;21.20;39.20;;;;;;5088466;28;20035;-67
2022/05/27 12:34:26;;;;;;;4.18;1.60;;;21.20;39.30;;;;;;5092503;28;20032;-68
2022/05/27 12:36:53;;;;;;;6.65;2.03;;;21.40;39.40;;;;;;5097820;28;20098;-67
2022/05/27 12:39:25;;;;;;;5.30;1.92;;;21.50;38.80;;;;;;5086588;28;20036;-67
2022/05/27 12:42:08;;;;;;;5.60;1.55;;;21.70;38.80;;;;;;5089875;28;20036;-67
2022/05/27 12:44:34;;;;;;;4.80;1.50;;;21.80;38.80;;;;;;5086981;28;20766;-68
2022/05/27 12:47:01;;;;;;;4.20;1.70;;;21.90;38.50;;;;;;5090121;28;20066;-68
2022/05/27 12:49:46;;;;;;;4.57;1.77;;;22.10;38.80;;;;;;5089769;28;20028;-68
2022/05/27 12:52:50;;;;;;;4.95;1.40;;;22.10;38.10;;;;;;5090859;28;20386;-67
2022/05/27 12:55:41;;;;;;;7.80;2.10;;;22.10;37.80;;;;;;5039200;28;20104;-67
2022/05/27 13:00:59;;;;;;;6.45;1.92;;;21.60;38.10;;;;;;5093937;28;20082;-68
2022/05/27 13:03:37;;;;;;;5.85;1.88;;;21.50;38.40;;;;;;5103380;28;20088;-68
2022/05/27 13:06:07;;;;;;;5.82;1.70;;;21.30;38.80;;;;;;5104636;28;20016;-68
2022/05/27 13:08:35;;;;;;;4.50;1.70;;;21.40;38.80;;;;;;5086856;28;20123;-67
2022/05/27 13:11:00;;;;;;;5.35;1.70;;;21.40;38.60;;;;;;5091378;28;20083;-68
2022/05/27 13:13:29;;;;;;;6.30;1.88;;;21.30;37.90;;;;;;5064664;28;20033;-67
2022/05/27 13:16:30;;;;;;;5.95;1.80;;;21.20;38.60;;;;;;5082516;28;20031;-67
2022/05/27 13:19:05;;;;;;;7.13;1.70;;;21.10;38.90;;;;;;5078850;28;20040;-68
2022/05/27 13:21:48;;;;;;;6.78;1.80;;;21.00;38.90;;;;;;5085207;28;20114;-67
2022/05/27 13:24:13;;;;;;;7.38;2.03;;;20.80;39.10;;;;;;5082448;28;20044;-67
2022/05/27 13:26:51;;;;;;;5.30;1.48;;;20.80;39.20;;;;;;5097388;28;20063;-67
2022/05/27 13:29:34;;;;;;;4.95;1.63;;;20.90;39.10;;;;;;5093496;28;20031;-67
2022/05/27 13:32:13;;;;;;;5.35;1.67;;;21.10;39.30;;;;;;5090996;28;20027;-67
2022/05/27 13:34:43;;;;;;;5.07;1.52;;;21.20;38.80;;;;;;5092530;28;20020;-67
2022/05/27 13:37:36;;;;;;;6.22;1.88;;;21.00;39.10;;;;;;5090132;28;20031;-67
2022/05/27 13:40:07;;;;;;;6.50;1.77;;;20.90;39.60;;;;;;5079594;28;20031;-67
2022/05/27 13:42:45;;;;;;;4.68;1.40;;;20.80;39.80;;;;;;5072741;28;20036;-68
2022/05/27 13:45:13;;;;;;;3.42;1.48;;;21.00;39.50;;;;;;5082456;28;20035;-66
2022/05/27 13:47:58;;;;;;;4.43;1.50;;;21.10;39.10;;;;;;5092224;28;20058;-67
2022/05/27 13:50:30;;;;;;;4.88;1.50;;;21.30;39.00;;;;;;5075508;28;20019;-66
2022/05/27 13:52:56;;;;;;;5.63;1.50;;;21.40;38.40;;;;;;5086557;28;20029;-66